<?xml version="1.0" encoding="UTF-8" standalone="no" ?>
<gpx xmlns="http://www.topografix.com/GPX/1/1" xmlns:xsi="http://www.w3.org/2001/XMLSchema-instance" xsi:schemaLocation="http://www.topografix.com/GPX/1/1 http://www.topografix.com/GPX/1/1/gpx.xsd" version="1.1" creator="VisuGPX - https://www.visugpx.com">
  <metadata>
    <name>Maroc2011 - Tadighoust à Merzouga</name>
    <desc><![CDATA[De chez Pauline, jusqu\'aux premieres dunes ...]]></desc>
  </metadata>
  <trk>
    <name><![CDATA[TadighoutàMerzouga]]></name>
    <trkseg>
      <trkpt lat="31.8163" lon="-4.96806">
        <ele>1124.553</ele>
        <time>2011-04-24T09:44:40Z</time>
      </trkpt>
      <trkpt lat="31.81636" lon="-4.96788">
        <ele>1124.783</ele>
        <time>2011-04-24T09:45:06Z</time>
      </trkpt>
      <trkpt lat="31.81638" lon="-4.96786">
        <ele>1118.616</ele>
        <time>2011-04-24T09:45:48Z</time>
      </trkpt>
      <trkpt lat="31.81639" lon="-4.96767">
        <ele>1113.321</ele>
        <time>2011-04-24T09:52:27Z</time>
      </trkpt>
      <trkpt lat="31.81644" lon="-4.96757">
        <ele>1113.02</ele>
        <time>2011-04-24T09:53:38Z</time>
      </trkpt>
      <trkpt lat="31.81779" lon="-4.96783">
        <ele>1114.302</ele>
        <time>2011-04-24T09:54:18Z</time>
      </trkpt>
      <trkpt lat="31.81801" lon="-4.96716">
        <ele>1114.17</ele>
        <time>2011-04-24T09:54:41Z</time>
      </trkpt>
      <trkpt lat="31.81811" lon="-4.96609">
        <ele>1114.544</ele>
        <time>2011-04-24T09:55:01Z</time>
      </trkpt>
      <trkpt lat="31.81801" lon="-4.96536">
        <ele>1113.934</ele>
        <time>2011-04-24T09:55:16Z</time>
      </trkpt>
      <trkpt lat="31.81781" lon="-4.965">
        <ele>1113.783</ele>
        <time>2011-04-24T09:55:26Z</time>
      </trkpt>
      <trkpt lat="31.81703" lon="-4.96446">
        <ele>1112.814</ele>
        <time>2011-04-24T09:55:50Z</time>
      </trkpt>
      <trkpt lat="31.81717" lon="-4.96397">
        <ele>1113.716</ele>
        <time>2011-04-24T09:56:04Z</time>
      </trkpt>
      <trkpt lat="31.817" lon="-4.96377">
        <ele>1114.615</ele>
        <time>2011-04-24T09:56:12Z</time>
      </trkpt>
      <trkpt lat="31.81646" lon="-4.96333">
        <ele>1115.143</ele>
        <time>2011-04-24T09:56:25Z</time>
      </trkpt>
      <trkpt lat="31.8154" lon="-4.96175">
        <ele>1112.698</ele>
        <time>2011-04-24T09:56:58Z</time>
      </trkpt>
      <trkpt lat="31.8151" lon="-4.96035">
        <ele>1111.684</ele>
        <time>2011-04-24T09:57:23Z</time>
      </trkpt>
      <trkpt lat="31.81552" lon="-4.95881">
        <ele>1112.368</ele>
        <time>2011-04-24T09:57:47Z</time>
      </trkpt>
      <trkpt lat="31.81574" lon="-4.95806">
        <ele>1110.11</ele>
        <time>2011-04-24T09:57:58Z</time>
      </trkpt>
      <trkpt lat="31.81573" lon="-4.95703">
        <ele>1107.382</ele>
        <time>2011-04-24T09:58:14Z</time>
      </trkpt>
      <trkpt lat="31.81537" lon="-4.95587">
        <ele>1107.38</ele>
        <time>2011-04-24T09:58:35Z</time>
      </trkpt>
      <trkpt lat="31.81535" lon="-4.95567">
        <ele>1106.717</ele>
        <time>2011-04-24T09:58:39Z</time>
      </trkpt>
      <trkpt lat="31.8159" lon="-4.95521">
        <ele>1108.428</ele>
        <time>2011-04-24T09:58:52Z</time>
      </trkpt>
      <trkpt lat="31.81622" lon="-4.95473">
        <ele>1109.891</ele>
        <time>2011-04-24T09:59:03Z</time>
      </trkpt>
      <trkpt lat="31.81391" lon="-4.95234">
        <ele>1108.383</ele>
        <time>2011-04-24T09:59:30Z</time>
      </trkpt>
      <trkpt lat="31.81285" lon="-4.9516">
        <ele>1107.237</ele>
        <time>2011-04-24T09:59:39Z</time>
      </trkpt>
      <trkpt lat="31.81211" lon="-4.95137">
        <ele>1107.5</ele>
        <time>2011-04-24T09:59:45Z</time>
      </trkpt>
      <trkpt lat="31.80995" lon="-4.95197">
        <ele>1112.098</ele>
        <time>2011-04-24T10:00:00Z</time>
      </trkpt>
      <trkpt lat="31.80668" lon="-4.95331">
        <ele>1105.785</ele>
        <time>2011-04-24T10:00:23Z</time>
      </trkpt>
      <trkpt lat="31.80145" lon="-4.95583">
        <ele>1102.378</ele>
        <time>2011-04-24T10:00:55Z</time>
      </trkpt>
      <trkpt lat="31.79647" lon="-4.95793">
        <ele>1103.69</ele>
        <time>2011-04-24T10:01:22Z</time>
      </trkpt>
      <trkpt lat="31.78588" lon="-4.96254">
        <ele>1096.726</ele>
        <time>2011-04-24T10:02:20Z</time>
      </trkpt>
      <trkpt lat="31.78142" lon="-4.96483">
        <ele>1091.892</ele>
        <time>2011-04-24T10:02:45Z</time>
      </trkpt>
      <trkpt lat="31.7794" lon="-4.96617">
        <ele>1091.501</ele>
        <time>2011-04-24T10:02:57Z</time>
      </trkpt>
      <trkpt lat="31.7791" lon="-4.96637">
        <ele>1088.438</ele>
        <time>2011-04-24T10:02:59Z</time>
      </trkpt>
      <trkpt lat="31.77761" lon="-4.96712">
        <ele>1091.429</ele>
        <time>2011-04-24T10:03:08Z</time>
      </trkpt>
      <trkpt lat="31.77729" lon="-4.96752">
        <ele>1094.7</ele>
        <time>2011-04-24T10:03:10Z</time>
      </trkpt>
      <trkpt lat="31.7771" lon="-4.96765">
        <ele>1094.7</ele>
        <time>2011-04-24T10:03:11Z</time>
      </trkpt>
      <trkpt lat="31.76827" lon="-4.97331">
        <ele>1081.506</ele>
        <time>2011-04-24T10:04:05Z</time>
      </trkpt>
      <trkpt lat="31.76508" lon="-4.9751">
        <ele>1076.266</ele>
        <time>2011-04-24T10:04:29Z</time>
      </trkpt>
      <trkpt lat="31.76428" lon="-4.9754">
        <ele>1079.053</ele>
        <time>2011-04-24T10:04:33Z</time>
      </trkpt>
      <trkpt lat="31.75743" lon="-4.977">
        <ele>1066.86</ele>
        <time>2011-04-24T10:05:10Z</time>
      </trkpt>
      <trkpt lat="31.75669" lon="-4.97738">
        <ele>1063.682</ele>
        <time>2011-04-24T10:05:15Z</time>
      </trkpt>
      <trkpt lat="31.75628" lon="-4.97793">
        <ele>1062.201</ele>
        <time>2011-04-24T10:05:19Z</time>
      </trkpt>
      <trkpt lat="31.75613" lon="-4.97866">
        <ele>1059.429</ele>
        <time>2011-04-24T10:05:23Z</time>
      </trkpt>
      <trkpt lat="31.75625" lon="-4.98155">
        <ele>1061.335</ele>
        <time>2011-04-24T10:05:50Z</time>
      </trkpt>
      <trkpt lat="31.75577" lon="-4.98272">
        <ele>1062.616</ele>
        <time>2011-04-24T10:05:58Z</time>
      </trkpt>
      <trkpt lat="31.75418" lon="-4.98347">
        <ele>1065.647</ele>
        <time>2011-04-24T10:06:08Z</time>
      </trkpt>
      <trkpt lat="31.75262" lon="-4.98395">
        <ele>1063.419</ele>
        <time>2011-04-24T10:06:17Z</time>
      </trkpt>
      <trkpt lat="31.75046" lon="-4.98418">
        <ele>1065.269</ele>
        <time>2011-04-24T10:06:29Z</time>
      </trkpt>
      <trkpt lat="31.74655" lon="-4.98395">
        <ele>1063.851</ele>
        <time>2011-04-24T10:06:48Z</time>
      </trkpt>
      <trkpt lat="31.73619" lon="-4.98346">
        <ele>1057.933</ele>
        <time>2011-04-24T10:07:42Z</time>
      </trkpt>
      <trkpt lat="31.73302" lon="-4.98346">
        <ele>1056.098</ele>
        <time>2011-04-24T10:07:58Z</time>
      </trkpt>
      <trkpt lat="31.73228" lon="-4.98384">
        <ele>1054.225</ele>
        <time>2011-04-24T10:08:02Z</time>
      </trkpt>
      <trkpt lat="31.7308" lon="-4.98518">
        <ele>1053.482</ele>
        <time>2011-04-24T10:08:11Z</time>
      </trkpt>
      <trkpt lat="31.73033" lon="-4.98559">
        <ele>1052.234</ele>
        <time>2011-04-24T10:08:14Z</time>
      </trkpt>
      <trkpt lat="31.72898" lon="-4.98669">
        <ele>1046.999</ele>
        <time>2011-04-24T10:08:24Z</time>
      </trkpt>
      <trkpt lat="31.72846" lon="-4.98694">
        <ele>1043.017</ele>
        <time>2011-04-24T10:08:28Z</time>
      </trkpt>
      <trkpt lat="31.72581" lon="-4.98696">
        <ele>1045.256</ele>
        <time>2011-04-24T10:08:55Z</time>
      </trkpt>
      <trkpt lat="31.72485" lon="-4.98668">
        <ele>1050.367</ele>
        <time>2011-04-24T10:09:01Z</time>
      </trkpt>
      <trkpt lat="31.71947" lon="-4.98262">
        <ele>1043.223</ele>
        <time>2011-04-24T10:09:43Z</time>
      </trkpt>
      <trkpt lat="31.71793" lon="-4.98212">
        <ele>1042.112</ele>
        <time>2011-04-24T10:09:55Z</time>
      </trkpt>
      <trkpt lat="31.71225" lon="-4.98089">
        <ele>1037.95</ele>
        <time>2011-04-24T10:10:42Z</time>
      </trkpt>
      <trkpt lat="31.70914" lon="-4.97836">
        <ele>1036.106</ele>
        <time>2011-04-24T10:11:14Z</time>
      </trkpt>
      <trkpt lat="31.70565" lon="-4.97751">
        <ele>1038.203</ele>
        <time>2011-04-24T10:11:45Z</time>
      </trkpt>
      <trkpt lat="31.70015" lon="-4.97629">
        <ele>1035.608</ele>
        <time>2011-04-24T10:12:44Z</time>
      </trkpt>
      <trkpt lat="31.69965" lon="-4.976">
        <ele>1033.4</ele>
        <time>2011-04-24T10:12:53Z</time>
      </trkpt>
      <trkpt lat="31.69936" lon="-4.97523">
        <ele>1032.84</ele>
        <time>2011-04-24T10:13:04Z</time>
      </trkpt>
      <trkpt lat="31.69966" lon="-4.97261">
        <ele>1031.997</ele>
        <time>2011-04-24T10:13:32Z</time>
      </trkpt>
      <trkpt lat="31.69993" lon="-4.9699">
        <ele>1030.44</ele>
        <time>2011-04-24T10:14:00Z</time>
      </trkpt>
      <trkpt lat="31.69997" lon="-4.9695">
        <ele>1029.472</ele>
        <time>2011-04-24T10:14:05Z</time>
      </trkpt>
      <trkpt lat="31.69984" lon="-4.96911">
        <ele>1029.499</ele>
        <time>2011-04-24T10:14:12Z</time>
      </trkpt>
      <trkpt lat="31.6992" lon="-4.96848">
        <ele>1030.407</ele>
        <time>2011-04-24T10:14:24Z</time>
      </trkpt>
      <trkpt lat="31.69926" lon="-4.96826">
        <ele>1030.888</ele>
        <time>2011-04-24T10:14:27Z</time>
      </trkpt>
      <trkpt lat="31.69932" lon="-4.96703">
        <ele>1031.186</ele>
        <time>2011-04-24T10:14:40Z</time>
      </trkpt>
      <trkpt lat="31.69875" lon="-4.96617">
        <ele>1029.807</ele>
        <time>2011-04-24T10:14:51Z</time>
      </trkpt>
      <trkpt lat="31.69823" lon="-4.96497">
        <ele>1029.901</ele>
        <time>2011-04-24T10:15:02Z</time>
      </trkpt>
      <trkpt lat="31.6979" lon="-4.96384">
        <ele>1028.51</ele>
        <time>2011-04-24T10:15:11Z</time>
      </trkpt>
      <trkpt lat="31.69764" lon="-4.96248">
        <ele>1027.645</ele>
        <time>2011-04-24T10:15:24Z</time>
      </trkpt>
      <trkpt lat="31.69781" lon="-4.96145">
        <ele>1028.739</ele>
        <time>2011-04-24T10:15:33Z</time>
      </trkpt>
      <trkpt lat="31.69782" lon="-4.96004">
        <ele>1028.128</ele>
        <time>2011-04-24T10:15:44Z</time>
      </trkpt>
      <trkpt lat="31.69654" lon="-4.95784">
        <ele>1026.634</ele>
        <time>2011-04-24T10:16:12Z</time>
      </trkpt>
      <trkpt lat="31.69429" lon="-4.95492">
        <ele>1023.066</ele>
        <time>2011-04-24T10:17:10Z</time>
      </trkpt>
      <trkpt lat="31.69376" lon="-4.95401">
        <ele>1022.62</ele>
        <time>2011-04-24T10:17:22Z</time>
      </trkpt>
      <trkpt lat="31.69336" lon="-4.95306">
        <ele>1021.14</ele>
        <time>2011-04-24T10:17:35Z</time>
      </trkpt>
      <trkpt lat="31.69295" lon="-4.95281">
        <ele>1021.069</ele>
        <time>2011-04-24T10:17:48Z</time>
      </trkpt>
      <trkpt lat="31.69259" lon="-4.95293">
        <ele>1022.002</ele>
        <time>2011-04-24T10:17:54Z</time>
      </trkpt>
      <trkpt lat="31.69082" lon="-4.95434">
        <ele>1020.421</ele>
        <time>2011-04-24T10:18:21Z</time>
      </trkpt>
      <trkpt lat="31.68814" lon="-4.95677">
        <ele>1022.919</ele>
        <time>2011-04-24T10:19:03Z</time>
      </trkpt>
      <trkpt lat="31.68764" lon="-4.95716">
        <ele>1020.411</ele>
        <time>2011-04-24T10:19:10Z</time>
      </trkpt>
      <trkpt lat="31.68756" lon="-4.95749">
        <ele>1019.859</ele>
        <time>2011-04-24T10:23:39Z</time>
      </trkpt>
      <trkpt lat="31.68735" lon="-4.9574">
        <ele>1020.771</ele>
        <time>2011-04-24T10:25:54Z</time>
      </trkpt>
      <trkpt lat="31.68701" lon="-4.95765">
        <ele>1022.129</ele>
        <time>2011-04-24T10:26:01Z</time>
      </trkpt>
      <trkpt lat="31.68589" lon="-4.95851">
        <ele>1020.706</ele>
        <time>2011-04-24T10:26:24Z</time>
      </trkpt>
      <trkpt lat="31.68511" lon="-4.95768">
        <ele>1023.035</ele>
        <time>2011-04-24T10:26:38Z</time>
      </trkpt>
      <trkpt lat="31.68394" lon="-4.95652">
        <ele>1021.87</ele>
        <time>2011-04-24T10:26:52Z</time>
      </trkpt>
      <trkpt lat="31.68274" lon="-4.95509">
        <ele>1023.734</ele>
        <time>2011-04-24T10:27:05Z</time>
      </trkpt>
      <trkpt lat="31.68057" lon="-4.9525">
        <ele>1021.829</ele>
        <time>2011-04-24T10:27:25Z</time>
      </trkpt>
      <trkpt lat="31.67817" lon="-4.94813">
        <ele>1023.914</ele>
        <time>2011-04-24T10:27:53Z</time>
      </trkpt>
      <trkpt lat="31.67681" lon="-4.94517">
        <ele>1023.197</ele>
        <time>2011-04-24T10:28:08Z</time>
      </trkpt>
      <trkpt lat="31.67596" lon="-4.94324">
        <ele>1019.703</ele>
        <time>2011-04-24T10:28:17Z</time>
      </trkpt>
      <trkpt lat="31.67483" lon="-4.93925">
        <ele>1018.956</ele>
        <time>2011-04-24T10:28:35Z</time>
      </trkpt>
      <trkpt lat="31.67466" lon="-4.93838">
        <ele>1016.175</ele>
        <time>2011-04-24T10:28:39Z</time>
      </trkpt>
      <trkpt lat="31.67336" lon="-4.93547">
        <ele>1015.069</ele>
        <time>2011-04-24T10:28:53Z</time>
      </trkpt>
      <trkpt lat="31.66723" lon="-4.92305">
        <ele>1011.684</ele>
        <time>2011-04-24T10:29:57Z</time>
      </trkpt>
      <trkpt lat="31.66736" lon="-4.92223">
        <ele>1009.497</ele>
        <time>2011-04-24T10:30:00Z</time>
      </trkpt>
      <trkpt lat="31.66646" lon="-4.92065">
        <ele>1008.1</ele>
        <time>2011-04-24T10:30:11Z</time>
      </trkpt>
      <trkpt lat="31.66556" lon="-4.91472">
        <ele>1007.97</ele>
        <time>2011-04-24T10:31:22Z</time>
      </trkpt>
      <trkpt lat="31.66479" lon="-4.90616">
        <ele>1004.421</ele>
        <time>2011-04-24T10:31:56Z</time>
      </trkpt>
      <trkpt lat="31.66418" lon="-4.89995">
        <ele>998.084</ele>
        <time>2011-04-24T10:32:21Z</time>
      </trkpt>
      <trkpt lat="31.6642" lon="-4.89775">
        <ele>994.538</ele>
        <time>2011-04-24T10:32:31Z</time>
      </trkpt>
      <trkpt lat="31.66214" lon="-4.89296">
        <ele>994.947</ele>
        <time>2011-04-24T10:32:54Z</time>
      </trkpt>
      <trkpt lat="31.66145" lon="-4.89114">
        <ele>992.143</ele>
        <time>2011-04-24T10:33:03Z</time>
      </trkpt>
      <trkpt lat="31.6597" lon="-4.88858">
        <ele>993.254</ele>
        <time>2011-04-24T10:33:16Z</time>
      </trkpt>
      <trkpt lat="31.6524" lon="-4.87233">
        <ele>991.874</ele>
        <time>2011-04-24T10:34:28Z</time>
      </trkpt>
      <trkpt lat="31.65099" lon="-4.86926">
        <ele>988.4</ele>
        <time>2011-04-24T10:34:41Z</time>
      </trkpt>
      <trkpt lat="31.64965" lon="-4.86676">
        <ele>985.572</ele>
        <time>2011-04-24T10:34:52Z</time>
      </trkpt>
      <trkpt lat="31.64908" lon="-4.86513">
        <ele>985.474</ele>
        <time>2011-04-24T10:34:59Z</time>
      </trkpt>
      <trkpt lat="31.64913" lon="-4.86268">
        <ele>982.907</ele>
        <time>2011-04-24T10:35:09Z</time>
      </trkpt>
      <trkpt lat="31.64793" lon="-4.86135">
        <ele>982.566</ele>
        <time>2011-04-24T10:35:17Z</time>
      </trkpt>
      <trkpt lat="31.6477" lon="-4.85903">
        <ele>981.037</ele>
        <time>2011-04-24T10:35:26Z</time>
      </trkpt>
      <trkpt lat="31.64708" lon="-4.85661">
        <ele>980.337</ele>
        <time>2011-04-24T10:35:36Z</time>
      </trkpt>
      <trkpt lat="31.64638" lon="-4.85348">
        <ele>974.809</ele>
        <time>2011-04-24T10:35:52Z</time>
      </trkpt>
      <trkpt lat="31.64456" lon="-4.85201">
        <ele>977.768</ele>
        <time>2011-04-24T10:36:03Z</time>
      </trkpt>
      <trkpt lat="31.64312" lon="-4.85058">
        <ele>975.897</ele>
        <time>2011-04-24T10:36:12Z</time>
      </trkpt>
      <trkpt lat="31.64292" lon="-4.85025">
        <ele>972.477</ele>
        <time>2011-04-24T10:36:15Z</time>
      </trkpt>
      <trkpt lat="31.64305" lon="-4.84909">
        <ele>970.351</ele>
        <time>2011-04-24T10:36:22Z</time>
      </trkpt>
      <trkpt lat="31.64271" lon="-4.84876">
        <ele>967.037</ele>
        <time>2011-04-24T10:36:29Z</time>
      </trkpt>
      <trkpt lat="31.64251" lon="-4.84857">
        <ele>961.23</ele>
        <time>2011-04-24T10:36:33Z</time>
      </trkpt>
      <trkpt lat="31.64245" lon="-4.84851">
        <ele>961.23</ele>
        <time>2011-04-24T10:36:34Z</time>
      </trkpt>
      <trkpt lat="31.64229" lon="-4.84754">
        <ele>960.003</ele>
        <time>2011-04-24T10:36:41Z</time>
      </trkpt>
      <trkpt lat="31.64189" lon="-4.84709">
        <ele>960.83</ele>
        <time>2011-04-24T10:36:47Z</time>
      </trkpt>
      <trkpt lat="31.64174" lon="-4.84672">
        <ele>963.273</ele>
        <time>2011-04-24T10:36:52Z</time>
      </trkpt>
      <trkpt lat="31.6419" lon="-4.8463">
        <ele>966.248</ele>
        <time>2011-04-24T10:36:57Z</time>
      </trkpt>
      <trkpt lat="31.64195" lon="-4.84541">
        <ele>969.848</ele>
        <time>2011-04-24T10:37:04Z</time>
      </trkpt>
      <trkpt lat="31.64154" lon="-4.84409">
        <ele>973.224</ele>
        <time>2011-04-24T10:37:11Z</time>
      </trkpt>
      <trkpt lat="31.6394" lon="-4.83681">
        <ele>972.15</ele>
        <time>2011-04-24T10:37:46Z</time>
      </trkpt>
      <trkpt lat="31.63833" lon="-4.83174">
        <ele>971.341</ele>
        <time>2011-04-24T10:38:09Z</time>
      </trkpt>
      <trkpt lat="31.63798" lon="-4.83011">
        <ele>968.579</ele>
        <time>2011-04-24T10:38:16Z</time>
      </trkpt>
      <trkpt lat="31.6376" lon="-4.82671">
        <ele>965.135</ele>
        <time>2011-04-24T10:38:30Z</time>
      </trkpt>
      <trkpt lat="31.63713" lon="-4.82529">
        <ele>959.629</ele>
        <time>2011-04-24T10:38:37Z</time>
      </trkpt>
      <trkpt lat="31.63596" lon="-4.82382">
        <ele>959.017</ele>
        <time>2011-04-24T10:38:47Z</time>
      </trkpt>
      <trkpt lat="31.63567" lon="-4.82317">
        <ele>958.87</ele>
        <time>2011-04-24T10:38:51Z</time>
      </trkpt>
      <trkpt lat="31.63488" lon="-4.8201">
        <ele>960.356</ele>
        <time>2011-04-24T10:39:06Z</time>
      </trkpt>
      <trkpt lat="31.63394" lon="-4.81822">
        <ele>957.52</ele>
        <time>2011-04-24T10:39:16Z</time>
      </trkpt>
      <trkpt lat="31.63372" lon="-4.81783">
        <ele>954.492</ele>
        <time>2011-04-24T10:39:19Z</time>
      </trkpt>
      <trkpt lat="31.6338" lon="-4.81704">
        <ele>955.087</ele>
        <time>2011-04-24T10:39:25Z</time>
      </trkpt>
      <trkpt lat="31.63637" lon="-4.8112">
        <ele>952.222</ele>
        <time>2011-04-24T10:40:15Z</time>
      </trkpt>
      <trkpt lat="31.63852" lon="-4.80718">
        <ele>951.213</ele>
        <time>2011-04-24T10:40:49Z</time>
      </trkpt>
      <trkpt lat="31.63879" lon="-4.80562">
        <ele>952.666</ele>
        <time>2011-04-24T10:41:02Z</time>
      </trkpt>
      <trkpt lat="31.63951" lon="-4.80129">
        <ele>951.257</ele>
        <time>2011-04-24T10:41:43Z</time>
      </trkpt>
      <trkpt lat="31.63938" lon="-4.80094">
        <ele>950.432</ele>
        <time>2011-04-24T10:41:49Z</time>
      </trkpt>
      <trkpt lat="31.63865" lon="-4.80084">
        <ele>949.143</ele>
        <time>2011-04-24T10:41:57Z</time>
      </trkpt>
      <trkpt lat="31.63729" lon="-4.80013">
        <ele>949.599</ele>
        <time>2011-04-24T10:42:12Z</time>
      </trkpt>
      <trkpt lat="31.63499" lon="-4.7994">
        <ele>947.153</ele>
        <time>2011-04-24T10:42:32Z</time>
      </trkpt>
      <trkpt lat="31.63334" lon="-4.79979">
        <ele>946.566</ele>
        <time>2011-04-24T10:42:47Z</time>
      </trkpt>
      <trkpt lat="31.63278" lon="-4.79937">
        <ele>946.18</ele>
        <time>2011-04-24T10:42:54Z</time>
      </trkpt>
      <trkpt lat="31.63183" lon="-4.79895">
        <ele>945.151</ele>
        <time>2011-04-24T10:43:04Z</time>
      </trkpt>
      <trkpt lat="31.62988" lon="-4.79858">
        <ele>944.917</ele>
        <time>2011-04-24T10:43:26Z</time>
      </trkpt>
      <trkpt lat="31.62889" lon="-4.7986">
        <ele>944.213</ele>
        <time>2011-04-24T10:43:38Z</time>
      </trkpt>
      <trkpt lat="31.62388" lon="-4.80074">
        <ele>946.636</ele>
        <time>2011-04-24T10:44:20Z</time>
      </trkpt>
      <trkpt lat="31.62336" lon="-4.80094">
        <ele>945.291</ele>
        <time>2011-04-24T10:44:24Z</time>
      </trkpt>
      <trkpt lat="31.62245" lon="-4.80083">
        <ele>946.302</ele>
        <time>2011-04-24T10:44:31Z</time>
      </trkpt>
      <trkpt lat="31.62186" lon="-4.80003">
        <ele>949.106</ele>
        <time>2011-04-24T10:44:37Z</time>
      </trkpt>
      <trkpt lat="31.61973" lon="-4.79748">
        <ele>949.658</ele>
        <time>2011-04-24T10:44:53Z</time>
      </trkpt>
      <trkpt lat="31.61758" lon="-4.7947">
        <ele>948.04</ele>
        <time>2011-04-24T10:45:10Z</time>
      </trkpt>
      <trkpt lat="31.61614" lon="-4.79257">
        <ele>945.626</ele>
        <time>2011-04-24T10:45:22Z</time>
      </trkpt>
      <trkpt lat="31.61498" lon="-4.79052">
        <ele>944.455</ele>
        <time>2011-04-24T10:45:34Z</time>
      </trkpt>
      <trkpt lat="31.61425" lon="-4.78876">
        <ele>945.707</ele>
        <time>2011-04-24T10:45:43Z</time>
      </trkpt>
      <trkpt lat="31.61221" lon="-4.78369">
        <ele>942.658</ele>
        <time>2011-04-24T10:46:11Z</time>
      </trkpt>
      <trkpt lat="31.61163" lon="-4.77811">
        <ele>939.488</ele>
        <time>2011-04-24T10:46:38Z</time>
      </trkpt>
      <trkpt lat="31.61082" lon="-4.77453">
        <ele>938.6</ele>
        <time>2011-04-24T10:46:55Z</time>
      </trkpt>
      <trkpt lat="31.61046" lon="-4.77205">
        <ele>937.705</ele>
        <time>2011-04-24T10:47:07Z</time>
      </trkpt>
      <trkpt lat="31.60993" lon="-4.76978">
        <ele>937.398</ele>
        <time>2011-04-24T10:47:18Z</time>
      </trkpt>
      <trkpt lat="31.60899" lon="-4.76776">
        <ele>936.252</ele>
        <time>2011-04-24T10:47:29Z</time>
      </trkpt>
      <trkpt lat="31.6073" lon="-4.76579">
        <ele>936.13</ele>
        <time>2011-04-24T10:47:42Z</time>
      </trkpt>
      <trkpt lat="31.6046" lon="-4.76076">
        <ele>934.822</ele>
        <time>2011-04-24T10:48:11Z</time>
      </trkpt>
      <trkpt lat="31.60012" lon="-4.75238">
        <ele>928.393</ele>
        <time>2011-04-24T10:49:00Z</time>
      </trkpt>
      <trkpt lat="31.59925" lon="-4.75129">
        <ele>928.165</ele>
        <time>2011-04-24T10:49:07Z</time>
      </trkpt>
      <trkpt lat="31.59745" lon="-4.74963">
        <ele>931.787</ele>
        <time>2011-04-24T10:49:18Z</time>
      </trkpt>
      <trkpt lat="31.59466" lon="-4.7472">
        <ele>925.289</ele>
        <time>2011-04-24T10:49:35Z</time>
      </trkpt>
      <trkpt lat="31.59354" lon="-4.74711">
        <ele>923.718</ele>
        <time>2011-04-24T10:49:41Z</time>
      </trkpt>
      <trkpt lat="31.5883" lon="-4.74825">
        <ele>921.685</ele>
        <time>2011-04-24T10:50:16Z</time>
      </trkpt>
      <trkpt lat="31.58597" lon="-4.74812">
        <ele>923.798</ele>
        <time>2011-04-24T10:50:28Z</time>
      </trkpt>
      <trkpt lat="31.58211" lon="-4.74792">
        <ele>922.217</ele>
        <time>2011-04-24T10:50:48Z</time>
      </trkpt>
      <trkpt lat="31.58118" lon="-4.74815">
        <ele>920.145</ele>
        <time>2011-04-24T10:50:53Z</time>
      </trkpt>
      <trkpt lat="31.57996" lon="-4.74609">
        <ele>923.048</ele>
        <time>2011-04-24T10:51:21Z</time>
      </trkpt>
      <trkpt lat="31.57653" lon="-4.74049">
        <ele>918.689</ele>
        <time>2011-04-24T10:51:51Z</time>
      </trkpt>
      <trkpt lat="31.57546" lon="-4.73869">
        <ele>915.262</ele>
        <time>2011-04-24T10:52:01Z</time>
      </trkpt>
      <trkpt lat="31.56817" lon="-4.72603">
        <ele>907.346</ele>
        <time>2011-04-24T10:53:30Z</time>
      </trkpt>
      <trkpt lat="31.56693" lon="-4.7231">
        <ele>907.994</ele>
        <time>2011-04-24T10:53:53Z</time>
      </trkpt>
      <trkpt lat="31.56568" lon="-4.71883">
        <ele>905.931</ele>
        <time>2011-04-24T10:54:22Z</time>
      </trkpt>
      <trkpt lat="31.56404" lon="-4.71304">
        <ele>899.437</ele>
        <time>2011-04-24T10:55:04Z</time>
      </trkpt>
      <trkpt lat="31.56342" lon="-4.71169">
        <ele>899.252</ele>
        <time>2011-04-24T10:55:17Z</time>
      </trkpt>
      <trkpt lat="31.56267" lon="-4.71145">
        <ele>898.859</ele>
        <time>2011-04-24T10:55:24Z</time>
      </trkpt>
      <trkpt lat="31.56099" lon="-4.71175">
        <ele>898.245</ele>
        <time>2011-04-24T10:55:59Z</time>
      </trkpt>
      <trkpt lat="31.55953" lon="-4.71171">
        <ele>899.247</ele>
        <time>2011-04-24T10:56:16Z</time>
      </trkpt>
      <trkpt lat="31.55904" lon="-4.71136">
        <ele>899.394</ele>
        <time>2011-04-24T10:56:22Z</time>
      </trkpt>
      <trkpt lat="31.55805" lon="-4.71025">
        <ele>899.248</ele>
        <time>2011-04-24T10:56:34Z</time>
      </trkpt>
      <trkpt lat="31.55681" lon="-4.70916">
        <ele>894.974</ele>
        <time>2011-04-24T10:56:51Z</time>
      </trkpt>
      <trkpt lat="31.55278" lon="-4.70673">
        <ele>905.215</ele>
        <time>2011-04-24T10:57:32Z</time>
      </trkpt>
      <trkpt lat="31.5523" lon="-4.70618">
        <ele>908.297</ele>
        <time>2011-04-24T10:57:37Z</time>
      </trkpt>
      <trkpt lat="31.55185" lon="-4.70464">
        <ele>904.968</ele>
        <time>2011-04-24T10:57:47Z</time>
      </trkpt>
      <trkpt lat="31.55101" lon="-4.70052">
        <ele>904.865</ele>
        <time>2011-04-24T10:58:11Z</time>
      </trkpt>
      <trkpt lat="31.54467" lon="-4.66799">
        <ele>905.652</ele>
        <time>2011-04-24T11:00:39Z</time>
      </trkpt>
      <trkpt lat="31.54426" lon="-4.66585">
        <ele>902.196</ele>
        <time>2011-04-24T11:00:48Z</time>
      </trkpt>
      <trkpt lat="31.54413" lon="-4.6651">
        <ele>897.612</ele>
        <time>2011-04-24T11:00:52Z</time>
      </trkpt>
      <trkpt lat="31.54363" lon="-4.66323">
        <ele>903.671</ele>
        <time>2011-04-24T11:01:01Z</time>
      </trkpt>
      <trkpt lat="31.54238" lon="-4.66031">
        <ele>904.651</ele>
        <time>2011-04-24T11:01:15Z</time>
      </trkpt>
      <trkpt lat="31.53498" lon="-4.64468">
        <ele>904.806</ele>
        <time>2011-04-24T11:02:30Z</time>
      </trkpt>
      <trkpt lat="31.53382" lon="-4.64271">
        <ele>908.138</ele>
        <time>2011-04-24T11:02:40Z</time>
      </trkpt>
      <trkpt lat="31.53323" lon="-4.64205">
        <ele>909.49</ele>
        <time>2011-04-24T11:02:44Z</time>
      </trkpt>
      <trkpt lat="31.53113" lon="-4.63969">
        <ele>914.164</ele>
        <time>2011-04-24T11:02:59Z</time>
      </trkpt>
      <trkpt lat="31.52919" lon="-4.63738">
        <ele>915.943</ele>
        <time>2011-04-24T11:03:13Z</time>
      </trkpt>
      <trkpt lat="31.52888" lon="-4.6368">
        <ele>917.324</ele>
        <time>2011-04-24T11:03:16Z</time>
      </trkpt>
      <trkpt lat="31.52782" lon="-4.63416">
        <ele>913.05</ele>
        <time>2011-04-24T11:03:28Z</time>
      </trkpt>
      <trkpt lat="31.52662" lon="-4.62919">
        <ele>911.085</ele>
        <time>2011-04-24T11:03:49Z</time>
      </trkpt>
      <trkpt lat="31.5254" lon="-4.62509">
        <ele>908.473</ele>
        <time>2011-04-24T11:04:07Z</time>
      </trkpt>
      <trkpt lat="31.52436" lon="-4.62231">
        <ele>904.779</ele>
        <time>2011-04-24T11:04:19Z</time>
      </trkpt>
      <trkpt lat="31.52058" lon="-4.61421">
        <ele>904.867</ele>
        <time>2011-04-24T11:04:59Z</time>
      </trkpt>
      <trkpt lat="31.51731" lon="-4.60735">
        <ele>900.782</ele>
        <time>2011-04-24T11:05:30Z</time>
      </trkpt>
      <trkpt lat="31.51463" lon="-4.60144">
        <ele>886.385</ele>
        <time>2011-04-24T11:05:58Z</time>
      </trkpt>
      <trkpt lat="31.51423" lon="-4.60011">
        <ele>889.518</ele>
        <time>2011-04-24T11:06:04Z</time>
      </trkpt>
      <trkpt lat="31.51422" lon="-4.59808">
        <ele>886.692</ele>
        <time>2011-04-24T11:06:12Z</time>
      </trkpt>
      <trkpt lat="31.51513" lon="-4.58095">
        <ele>880.81</ele>
        <time>2011-04-24T11:07:28Z</time>
      </trkpt>
      <trkpt lat="31.51595" lon="-4.56898">
        <ele>873.662</ele>
        <time>2011-04-24T11:08:18Z</time>
      </trkpt>
      <trkpt lat="31.51646" lon="-4.56592">
        <ele>873.57</ele>
        <time>2011-04-24T11:08:31Z</time>
      </trkpt>
      <trkpt lat="31.52931" lon="-4.5124">
        <ele>864.696</ele>
        <time>2011-04-24T11:23:02Z</time>
      </trkpt>
      <trkpt lat="31.52949" lon="-4.51154">
        <ele>862.744</ele>
        <time>2011-04-24T11:23:06Z</time>
      </trkpt>
      <trkpt lat="31.53024" lon="-4.49967">
        <ele>861.347</ele>
        <time>2011-04-24T11:24:03Z</time>
      </trkpt>
      <trkpt lat="31.53042" lon="-4.49425">
        <ele>862.498</ele>
        <time>2011-04-24T11:24:28Z</time>
      </trkpt>
      <trkpt lat="31.53031" lon="-4.49142">
        <ele>859.335</ele>
        <time>2011-04-24T11:24:41Z</time>
      </trkpt>
      <trkpt lat="31.52919" lon="-4.48752">
        <ele>859.599</ele>
        <time>2011-04-24T11:25:00Z</time>
      </trkpt>
      <trkpt lat="31.52915" lon="-4.48507">
        <ele>858.35</ele>
        <time>2011-04-24T11:25:11Z</time>
      </trkpt>
      <trkpt lat="31.53043" lon="-4.47792">
        <ele>862.97</ele>
        <time>2011-04-24T11:25:43Z</time>
      </trkpt>
      <trkpt lat="31.5299" lon="-4.47549">
        <ele>862.709</ele>
        <time>2011-04-24T11:25:56Z</time>
      </trkpt>
      <trkpt lat="31.52868" lon="-4.47123">
        <ele>858.872</ele>
        <time>2011-04-24T11:26:16Z</time>
      </trkpt>
      <trkpt lat="31.52746" lon="-4.46716">
        <ele>848.425</ele>
        <time>2011-04-24T11:26:37Z</time>
      </trkpt>
      <trkpt lat="31.52724" lon="-4.46612">
        <ele>849.566</ele>
        <time>2011-04-24T11:26:43Z</time>
      </trkpt>
      <trkpt lat="31.52589" lon="-4.46391">
        <ele>847.168</ele>
        <time>2011-04-24T11:26:58Z</time>
      </trkpt>
      <trkpt lat="31.52529" lon="-4.46259">
        <ele>846.247</ele>
        <time>2011-04-24T11:27:07Z</time>
      </trkpt>
      <trkpt lat="31.52418" lon="-4.45827">
        <ele>846.948</ele>
        <time>2011-04-24T11:27:35Z</time>
      </trkpt>
      <trkpt lat="31.52227" lon="-4.44954">
        <ele>849.331</ele>
        <time>2011-04-24T11:28:20Z</time>
      </trkpt>
      <trkpt lat="31.52198" lon="-4.44788">
        <ele>846.756</ele>
        <time>2011-04-24T11:28:28Z</time>
      </trkpt>
      <trkpt lat="31.5215" lon="-4.44704">
        <ele>845.992</ele>
        <time>2011-04-24T11:28:33Z</time>
      </trkpt>
      <trkpt lat="31.51905" lon="-4.44403">
        <ele>846.924</ele>
        <time>2011-04-24T11:28:53Z</time>
      </trkpt>
      <trkpt lat="31.51607" lon="-4.44036">
        <ele>842.54</ele>
        <time>2011-04-24T11:29:18Z</time>
      </trkpt>
      <trkpt lat="31.51283" lon="-4.4372">
        <ele>841.006</ele>
        <time>2011-04-24T11:30:02Z</time>
      </trkpt>
      <trkpt lat="31.51116" lon="-4.43465">
        <ele>843.133</ele>
        <time>2011-04-24T11:30:20Z</time>
      </trkpt>
      <trkpt lat="31.50415" lon="-4.42319">
        <ele>840.739</ele>
        <time>2011-04-24T11:31:25Z</time>
      </trkpt>
      <trkpt lat="31.50086" lon="-4.41894">
        <ele>837.417</ele>
        <time>2011-04-24T11:31:51Z</time>
      </trkpt>
      <trkpt lat="31.49857" lon="-4.41628">
        <ele>835.02</ele>
        <time>2011-04-24T11:32:10Z</time>
      </trkpt>
      <trkpt lat="31.49733" lon="-4.41408">
        <ele>833.534</ele>
        <time>2011-04-24T11:32:24Z</time>
      </trkpt>
      <trkpt lat="31.49716" lon="-4.41134">
        <ele>832.271</ele>
        <time>2011-04-24T11:32:42Z</time>
      </trkpt>
      <trkpt lat="31.49529" lon="-4.4081">
        <ele>828.542</ele>
        <time>2011-04-24T11:33:09Z</time>
      </trkpt>
      <trkpt lat="31.49475" lon="-4.40775">
        <ele>827.098</ele>
        <time>2011-04-24T11:33:16Z</time>
      </trkpt>
      <trkpt lat="31.49445" lon="-4.40774">
        <ele>827.759</ele>
        <time>2011-04-24T11:33:19Z</time>
      </trkpt>
      <trkpt lat="31.49378" lon="-4.40733">
        <ele>826.638</ele>
        <time>2011-04-24T11:33:26Z</time>
      </trkpt>
      <trkpt lat="31.49359" lon="-4.40687">
        <ele>826.263</ele>
        <time>2011-04-24T11:33:30Z</time>
      </trkpt>
      <trkpt lat="31.4934" lon="-4.40465">
        <ele>824.301</ele>
        <time>2011-04-24T11:33:52Z</time>
      </trkpt>
      <trkpt lat="31.49289" lon="-4.40305">
        <ele>823.294</ele>
        <time>2011-04-24T11:34:12Z</time>
      </trkpt>
      <trkpt lat="31.49236" lon="-4.40232">
        <ele>823.953</ele>
        <time>2011-04-24T11:34:23Z</time>
      </trkpt>
      <trkpt lat="31.49043" lon="-4.40103">
        <ele>824.456</ele>
        <time>2011-04-24T11:34:48Z</time>
      </trkpt>
      <trkpt lat="31.48972" lon="-4.4004">
        <ele>823.693</ele>
        <time>2011-04-24T11:34:58Z</time>
      </trkpt>
      <trkpt lat="31.48528" lon="-4.39987">
        <ele>825.081</ele>
        <time>2011-04-24T11:35:47Z</time>
      </trkpt>
      <trkpt lat="31.48398" lon="-4.39929">
        <ele>822.853</ele>
        <time>2011-04-24T11:35:59Z</time>
      </trkpt>
      <trkpt lat="31.48049" lon="-4.39591">
        <ele>822.44</ele>
        <time>2011-04-24T11:36:35Z</time>
      </trkpt>
      <trkpt lat="31.48032" lon="-4.39496">
        <ele>822.703</ele>
        <time>2011-04-24T11:36:42Z</time>
      </trkpt>
      <trkpt lat="31.48029" lon="-4.39354">
        <ele>820.887</ele>
        <time>2011-04-24T11:36:54Z</time>
      </trkpt>
      <trkpt lat="31.47998" lon="-4.39289">
        <ele>821.098</ele>
        <time>2011-04-24T11:37:00Z</time>
      </trkpt>
      <trkpt lat="31.47757" lon="-4.39014">
        <ele>820.747</ele>
        <time>2011-04-24T11:37:26Z</time>
      </trkpt>
      <trkpt lat="31.47417" lon="-4.38443">
        <ele>825.226</ele>
        <time>2011-04-24T11:37:58Z</time>
      </trkpt>
      <trkpt lat="31.45299" lon="-4.34863">
        <ele>811.28</ele>
        <time>2011-04-24T11:40:54Z</time>
      </trkpt>
      <trkpt lat="31.44947" lon="-4.34268">
        <ele>806.499</ele>
        <time>2011-04-24T11:41:24Z</time>
      </trkpt>
      <trkpt lat="31.44726" lon="-4.33857">
        <ele>807.781</ele>
        <time>2011-04-24T11:41:45Z</time>
      </trkpt>
      <trkpt lat="31.44655" lon="-4.33726">
        <ele>803.587</ele>
        <time>2011-04-24T11:41:52Z</time>
      </trkpt>
      <trkpt lat="31.44557" lon="-4.33514">
        <ele>805.519</ele>
        <time>2011-04-24T11:42:04Z</time>
      </trkpt>
      <trkpt lat="31.44398" lon="-4.33009">
        <ele>806.236</ele>
        <time>2011-04-24T11:42:36Z</time>
      </trkpt>
      <trkpt lat="31.44048" lon="-4.31874">
        <ele>804.813</ele>
        <time>2011-04-24T11:43:29Z</time>
      </trkpt>
      <trkpt lat="31.43953" lon="-4.31629">
        <ele>804.882</ele>
        <time>2011-04-24T11:43:40Z</time>
      </trkpt>
      <trkpt lat="31.43925" lon="-4.31564">
        <ele>802.944</ele>
        <time>2011-04-24T11:43:43Z</time>
      </trkpt>
      <trkpt lat="31.43637" lon="-4.30961">
        <ele>801.9</ele>
        <time>2011-04-24T11:44:13Z</time>
      </trkpt>
      <trkpt lat="31.43551" lon="-4.30832">
        <ele>800.687</ele>
        <time>2011-04-24T11:44:20Z</time>
      </trkpt>
      <trkpt lat="31.43365" lon="-4.30622">
        <ele>797.148</ele>
        <time>2011-04-24T11:44:36Z</time>
      </trkpt>
      <trkpt lat="31.43234" lon="-4.30448">
        <ele>798.905</ele>
        <time>2011-04-24T11:44:48Z</time>
      </trkpt>
      <trkpt lat="31.42678" lon="-4.2982">
        <ele>806.033</ele>
        <time>2011-04-24T11:45:29Z</time>
      </trkpt>
      <trkpt lat="31.42069" lon="-4.29113">
        <ele>801.223</ele>
        <time>2011-04-24T11:46:09Z</time>
      </trkpt>
      <trkpt lat="31.41978" lon="-4.28958">
        <ele>803.297</ele>
        <time>2011-04-24T11:46:18Z</time>
      </trkpt>
      <trkpt lat="31.41866" lon="-4.2873">
        <ele>796.284</ele>
        <time>2011-04-24T11:46:34Z</time>
      </trkpt>
      <trkpt lat="31.41815" lon="-4.28573">
        <ele>795.112</ele>
        <time>2011-04-24T11:46:46Z</time>
      </trkpt>
      <trkpt lat="31.4175" lon="-4.28472">
        <ele>795.998</ele>
        <time>2011-04-24T11:46:54Z</time>
      </trkpt>
      <trkpt lat="31.41718" lon="-4.28423">
        <ele>795.089</ele>
        <time>2011-04-24T11:46:58Z</time>
      </trkpt>
      <trkpt lat="31.41702" lon="-4.28331">
        <ele>796.338</ele>
        <time>2011-04-24T11:47:04Z</time>
      </trkpt>
      <trkpt lat="31.4173" lon="-4.27931">
        <ele>796.899</ele>
        <time>2011-04-24T11:47:28Z</time>
      </trkpt>
      <trkpt lat="31.41828" lon="-4.27645">
        <ele>802.293</ele>
        <time>2011-04-24T11:47:46Z</time>
      </trkpt>
      <trkpt lat="31.41969" lon="-4.27278">
        <ele>804.917</ele>
        <time>2011-04-24T11:48:05Z</time>
      </trkpt>
      <trkpt lat="31.42582" lon="-4.25778">
        <ele>808.593</ele>
        <time>2011-04-24T11:49:18Z</time>
      </trkpt>
      <trkpt lat="31.42707" lon="-4.25473">
        <ele>807.047</ele>
        <time>2011-04-24T11:49:34Z</time>
      </trkpt>
      <trkpt lat="31.428" lon="-4.25234">
        <ele>803.674</ele>
        <time>2011-04-24T11:49:47Z</time>
      </trkpt>
      <trkpt lat="31.42842" lon="-4.25067">
        <ele>803.022</ele>
        <time>2011-04-24T11:49:56Z</time>
      </trkpt>
      <trkpt lat="31.42861" lon="-4.24879">
        <ele>806.033</ele>
        <time>2011-04-24T11:50:06Z</time>
      </trkpt>
      <trkpt lat="31.42965" lon="-4.23839">
        <ele>805.881</ele>
        <time>2011-04-24T11:51:17Z</time>
      </trkpt>
      <trkpt lat="31.42984" lon="-4.23654">
        <ele>802.848</ele>
        <time>2011-04-24T11:51:33Z</time>
      </trkpt>
      <trkpt lat="31.42982" lon="-4.23631">
        <ele>801.664</ele>
        <time>2011-04-24T11:51:42Z</time>
      </trkpt>
      <trkpt lat="31.4302" lon="-4.23608">
        <ele>804.206</ele>
        <time>2011-04-24T11:51:54Z</time>
      </trkpt>
      <trkpt lat="31.43119" lon="-4.23545">
        <ele>804.369</ele>
        <time>2011-04-24T11:52:06Z</time>
      </trkpt>
      <trkpt lat="31.4337" lon="-4.23423">
        <ele>806.296</ele>
        <time>2011-04-24T11:52:35Z</time>
      </trkpt>
      <trkpt lat="31.43931" lon="-4.23144">
        <ele>806.132</ele>
        <time>2011-04-24T11:54:30Z</time>
      </trkpt>
      <trkpt lat="31.44249" lon="-4.23012">
        <ele>809.362</ele>
        <time>2011-04-24T11:55:44Z</time>
      </trkpt>
      <trkpt lat="31.44338" lon="-4.22956">
        <ele>809.484</ele>
        <time>2011-04-24T11:55:56Z</time>
      </trkpt>
      <trkpt lat="31.44347" lon="-4.22951">
        <ele>808.282</ele>
        <time>2011-04-24T11:55:58Z</time>
      </trkpt>
      <trkpt lat="31.44184" lon="-4.2304">
        <ele>808.023</ele>
        <time>2011-04-24T11:56:30Z</time>
      </trkpt>
      <trkpt lat="31.4399" lon="-4.23118">
        <ele>807.516</ele>
        <time>2011-04-24T11:56:54Z</time>
      </trkpt>
      <trkpt lat="31.43468" lon="-4.23368">
        <ele>804.478</ele>
        <time>2011-04-24T11:58:11Z</time>
      </trkpt>
      <trkpt lat="31.4344" lon="-4.23303">
        <ele>805.196</ele>
        <time>2011-04-24T11:58:26Z</time>
      </trkpt>
      <trkpt lat="31.43447" lon="-4.23296">
        <ele>807.046</ele>
        <time>2011-04-24T12:35:50Z</time>
      </trkpt>
      <trkpt lat="31.43473" lon="-4.23364">
        <ele>809.924</ele>
        <time>2011-04-24T12:36:41Z</time>
      </trkpt>
      <trkpt lat="31.4346" lon="-4.23342">
        <ele>811.219</ele>
        <time>2011-04-24T12:36:48Z</time>
      </trkpt>
      <trkpt lat="31.43398" lon="-4.23201">
        <ele>812.423</ele>
        <time>2011-04-24T12:37:04Z</time>
      </trkpt>
      <trkpt lat="31.43319" lon="-4.23027">
        <ele>810.5</ele>
        <time>2011-04-24T12:37:25Z</time>
      </trkpt>
      <trkpt lat="31.43371" lon="-4.22985">
        <ele>810.616</ele>
        <time>2011-04-24T12:37:39Z</time>
      </trkpt>
      <trkpt lat="31.43341" lon="-4.22911">
        <ele>809.96</ele>
        <time>2011-04-24T12:37:55Z</time>
      </trkpt>
      <trkpt lat="31.43302" lon="-4.22831">
        <ele>808.576</ele>
        <time>2011-04-24T12:38:08Z</time>
      </trkpt>
      <trkpt lat="31.43258" lon="-4.22857">
        <ele>809.42</ele>
        <time>2011-04-24T12:38:15Z</time>
      </trkpt>
      <trkpt lat="31.43213" lon="-4.2285">
        <ele>808.105</ele>
        <time>2011-04-24T12:38:22Z</time>
      </trkpt>
      <trkpt lat="31.43205" lon="-4.22834">
        <ele>806.835</ele>
        <time>2011-04-24T12:38:24Z</time>
      </trkpt>
      <trkpt lat="31.43194" lon="-4.22755">
        <ele>804.021</ele>
        <time>2011-04-24T12:38:34Z</time>
      </trkpt>
      <trkpt lat="31.43154" lon="-4.22663">
        <ele>804.611</ele>
        <time>2011-04-24T12:38:44Z</time>
      </trkpt>
      <trkpt lat="31.4318" lon="-4.22602">
        <ele>806.307</ele>
        <time>2011-04-24T12:38:47Z</time>
      </trkpt>
      <trkpt lat="31.43162" lon="-4.22567">
        <ele>809.693</ele>
        <time>2011-04-24T12:38:50Z</time>
      </trkpt>
      <trkpt lat="31.43139" lon="-4.22521">
        <ele>811.902</ele>
        <time>2011-04-24T12:38:54Z</time>
      </trkpt>
      <trkpt lat="31.43108" lon="-4.22367">
        <ele>818.316</ele>
        <time>2011-04-24T12:39:05Z</time>
      </trkpt>
      <trkpt lat="31.43083" lon="-4.22215">
        <ele>821.86</ele>
        <time>2011-04-24T12:39:14Z</time>
      </trkpt>
      <trkpt lat="31.42937" lon="-4.2188">
        <ele>827.044</ele>
        <time>2011-04-24T12:39:37Z</time>
      </trkpt>
      <trkpt lat="31.42835" lon="-4.2175">
        <ele>827.559</ele>
        <time>2011-04-24T12:39:45Z</time>
      </trkpt>
      <trkpt lat="31.42102" lon="-4.2101">
        <ele>820.83</ele>
        <time>2011-04-24T12:40:32Z</time>
      </trkpt>
      <trkpt lat="31.41814" lon="-4.20736">
        <ele>826.217</ele>
        <time>2011-04-24T12:40:50Z</time>
      </trkpt>
      <trkpt lat="31.39" lon="-4.1832">
        <ele>792.415</ele>
        <time>2011-04-24T12:43:28Z</time>
      </trkpt>
      <trkpt lat="31.38859" lon="-4.18154">
        <ele>793.99</ele>
        <time>2011-04-24T12:43:37Z</time>
      </trkpt>
      <trkpt lat="31.38586" lon="-4.1775">
        <ele>794.485</ele>
        <time>2011-04-24T12:43:57Z</time>
      </trkpt>
      <trkpt lat="31.38359" lon="-4.1743">
        <ele>790.114</ele>
        <time>2011-04-24T12:44:14Z</time>
      </trkpt>
      <trkpt lat="31.38331" lon="-4.17408">
        <ele>788.487</ele>
        <time>2011-04-24T12:44:16Z</time>
      </trkpt>
      <trkpt lat="31.38253" lon="-4.17386">
        <ele>791.637</ele>
        <time>2011-04-24T12:44:20Z</time>
      </trkpt>
      <trkpt lat="31.38078" lon="-4.1738">
        <ele>789.219</ele>
        <time>2011-04-24T12:44:28Z</time>
      </trkpt>
      <trkpt lat="31.3794" lon="-4.17346">
        <ele>788.48</ele>
        <time>2011-04-24T12:44:35Z</time>
      </trkpt>
      <trkpt lat="31.37825" lon="-4.17255">
        <ele>789.203</ele>
        <time>2011-04-24T12:44:42Z</time>
      </trkpt>
      <trkpt lat="31.3734" lon="-4.16767">
        <ele>787.95</ele>
        <time>2011-04-24T12:45:13Z</time>
      </trkpt>
      <trkpt lat="31.37173" lon="-4.16577">
        <ele>787.247</ele>
        <time>2011-04-24T12:45:25Z</time>
      </trkpt>
      <trkpt lat="31.37128" lon="-4.16425">
        <ele>792.683</ele>
        <time>2011-04-24T12:45:32Z</time>
      </trkpt>
      <trkpt lat="31.37115" lon="-4.16349">
        <ele>794.705</ele>
        <time>2011-04-24T12:45:35Z</time>
      </trkpt>
      <trkpt lat="31.37033" lon="-4.15713">
        <ele>799.219</ele>
        <time>2011-04-24T12:46:04Z</time>
      </trkpt>
      <trkpt lat="31.36955" lon="-4.15187">
        <ele>785.919</ele>
        <time>2011-04-24T12:46:30Z</time>
      </trkpt>
      <trkpt lat="31.36899" lon="-4.15042">
        <ele>785.663</ele>
        <time>2011-04-24T12:46:37Z</time>
      </trkpt>
      <trkpt lat="31.3632" lon="-4.14445">
        <ele>788.939</ele>
        <time>2011-04-24T12:47:11Z</time>
      </trkpt>
      <trkpt lat="31.35642" lon="-4.13628">
        <ele>789.394</ele>
        <time>2011-04-24T12:47:54Z</time>
      </trkpt>
      <trkpt lat="31.35611" lon="-4.13594">
        <ele>787.103</ele>
        <time>2011-04-24T12:47:56Z</time>
      </trkpt>
      <trkpt lat="31.35567" lon="-4.13556">
        <ele>784.356</ele>
        <time>2011-04-24T12:47:59Z</time>
      </trkpt>
      <trkpt lat="31.35435" lon="-4.13518">
        <ele>786.653</ele>
        <time>2011-04-24T12:48:06Z</time>
      </trkpt>
      <trkpt lat="31.35041" lon="-4.13522">
        <ele>786.641</ele>
        <time>2011-04-24T12:48:23Z</time>
      </trkpt>
      <trkpt lat="31.3461" lon="-4.13516">
        <ele>782.492</ele>
        <time>2011-04-24T12:48:42Z</time>
      </trkpt>
      <trkpt lat="31.34462" lon="-4.13436">
        <ele>783.563</ele>
        <time>2011-04-24T12:48:49Z</time>
      </trkpt>
      <trkpt lat="31.34404" lon="-4.13389">
        <ele>782.244</ele>
        <time>2011-04-24T12:48:52Z</time>
      </trkpt>
      <trkpt lat="31.33627" lon="-4.12685">
        <ele>782.332</ele>
        <time>2011-04-24T12:49:35Z</time>
      </trkpt>
      <trkpt lat="31.33265" lon="-4.12359">
        <ele>780.284</ele>
        <time>2011-04-24T12:49:55Z</time>
      </trkpt>
      <trkpt lat="31.33013" lon="-4.12129">
        <ele>774.122</ele>
        <time>2011-04-24T12:50:10Z</time>
      </trkpt>
      <trkpt lat="31.3289" lon="-4.11981">
        <ele>770.773</ele>
        <time>2011-04-24T12:50:33Z</time>
      </trkpt>
      <trkpt lat="31.32832" lon="-4.11893">
        <ele>770.124</ele>
        <time>2011-04-24T12:50:46Z</time>
      </trkpt>
      <trkpt lat="31.32755" lon="-4.11906">
        <ele>769.471</ele>
        <time>2011-04-24T12:50:53Z</time>
      </trkpt>
      <trkpt lat="31.3267" lon="-4.11824">
        <ele>770.136</ele>
        <time>2011-04-24T12:51:11Z</time>
      </trkpt>
      <trkpt lat="31.32606" lon="-4.1175">
        <ele>768.525</ele>
        <time>2011-04-24T12:51:24Z</time>
      </trkpt>
      <trkpt lat="31.32476" lon="-4.11637">
        <ele>767.881</ele>
        <time>2011-04-24T12:51:50Z</time>
      </trkpt>
      <trkpt lat="31.32381" lon="-4.11509">
        <ele>768.389</ele>
        <time>2011-04-24T12:52:14Z</time>
      </trkpt>
      <trkpt lat="31.32376" lon="-4.11485">
        <ele>769.122</ele>
        <time>2011-04-24T12:52:19Z</time>
      </trkpt>
      <trkpt lat="31.32336" lon="-4.11347">
        <ele>766.289</ele>
        <time>2011-04-24T12:52:43Z</time>
      </trkpt>
      <trkpt lat="31.32234" lon="-4.11249">
        <ele>766.701</ele>
        <time>2011-04-24T12:53:04Z</time>
      </trkpt>
      <trkpt lat="31.32197" lon="-4.11186">
        <ele>766.701</ele>
        <time>2011-04-24T12:53:16Z</time>
      </trkpt>
      <trkpt lat="31.32099" lon="-4.11047">
        <ele>766.095</ele>
        <time>2011-04-24T12:53:41Z</time>
      </trkpt>
      <trkpt lat="31.32067" lon="-4.10936">
        <ele>764.439</ele>
        <time>2011-04-24T12:53:56Z</time>
      </trkpt>
      <trkpt lat="31.31926" lon="-4.10785">
        <ele>765.74</ele>
        <time>2011-04-24T12:54:27Z</time>
      </trkpt>
      <trkpt lat="31.31864" lon="-4.10722">
        <ele>763.364</ele>
        <time>2011-04-24T12:54:42Z</time>
      </trkpt>
      <trkpt lat="31.31677" lon="-4.10509">
        <ele>762.76</ele>
        <time>2011-04-24T12:55:29Z</time>
      </trkpt>
      <trkpt lat="31.31555" lon="-4.10417">
        <ele>765.431</ele>
        <time>2011-04-24T12:56:41Z</time>
      </trkpt>
      <trkpt lat="31.31245" lon="-4.10115">
        <ele>767.146</ele>
        <time>2011-04-24T12:57:30Z</time>
      </trkpt>
      <trkpt lat="31.30859" lon="-4.09789">
        <ele>765.512</ele>
        <time>2011-04-24T12:58:43Z</time>
      </trkpt>
      <trkpt lat="31.30688" lon="-4.0963">
        <ele>763.051</ele>
        <time>2011-04-24T12:59:21Z</time>
      </trkpt>
      <trkpt lat="31.30534" lon="-4.09576">
        <ele>764.301</ele>
        <time>2011-04-24T12:59:44Z</time>
      </trkpt>
      <trkpt lat="31.30299" lon="-4.09591">
        <ele>767.847</ele>
        <time>2011-04-24T13:01:07Z</time>
      </trkpt>
      <trkpt lat="31.29972" lon="-4.09599">
        <ele>765.271</ele>
        <time>2011-04-24T13:01:55Z</time>
      </trkpt>
      <trkpt lat="31.29641" lon="-4.09577">
        <ele>766.293</ele>
        <time>2011-04-24T13:02:31Z</time>
      </trkpt>
      <trkpt lat="31.29568" lon="-4.09548">
        <ele>765.077</ele>
        <time>2011-04-24T13:02:38Z</time>
      </trkpt>
      <trkpt lat="31.29509" lon="-4.09587">
        <ele>766.259</ele>
        <time>2011-04-24T13:02:48Z</time>
      </trkpt>
      <trkpt lat="31.29435" lon="-4.09668">
        <ele>762.569</ele>
        <time>2011-04-24T13:03:03Z</time>
      </trkpt>
      <trkpt lat="31.29388" lon="-4.09692">
        <ele>759.727</ele>
        <time>2011-04-24T13:03:16Z</time>
      </trkpt>
      <trkpt lat="31.29352" lon="-4.0968">
        <ele>758.939</ele>
        <time>2011-04-24T13:03:27Z</time>
      </trkpt>
      <trkpt lat="31.29304" lon="-4.09629">
        <ele>758.752</ele>
        <time>2011-04-24T13:03:36Z</time>
      </trkpt>
      <trkpt lat="31.29169" lon="-4.09394">
        <ele>761.854</ele>
        <time>2011-04-24T13:04:12Z</time>
      </trkpt>
      <trkpt lat="31.29128" lon="-4.09356">
        <ele>762.199</ele>
        <time>2011-04-24T13:04:20Z</time>
      </trkpt>
      <trkpt lat="31.28992" lon="-4.09365">
        <ele>765.436</ele>
        <time>2011-04-24T13:04:36Z</time>
      </trkpt>
      <trkpt lat="31.28919" lon="-4.09374">
        <ele>764.419</ele>
        <time>2011-04-24T13:04:43Z</time>
      </trkpt>
      <trkpt lat="31.28859" lon="-4.09354">
        <ele>763.156</ele>
        <time>2011-04-24T13:04:59Z</time>
      </trkpt>
      <trkpt lat="31.28836" lon="-4.0937">
        <ele>763.975</ele>
        <time>2011-04-24T13:05:59Z</time>
      </trkpt>
      <trkpt lat="31.28816" lon="-4.09428">
        <ele>766.719</ele>
        <time>2011-04-24T13:06:06Z</time>
      </trkpt>
      <trkpt lat="31.28688" lon="-4.10063">
        <ele>761.982</ele>
        <time>2011-04-24T13:07:09Z</time>
      </trkpt>
      <trkpt lat="31.28524" lon="-4.1066">
        <ele>760.963</ele>
        <time>2011-04-24T13:08:22Z</time>
      </trkpt>
      <trkpt lat="31.28458" lon="-4.10864">
        <ele>760.039</ele>
        <time>2011-04-24T13:08:53Z</time>
      </trkpt>
      <trkpt lat="31.28297" lon="-4.11146">
        <ele>760.262</ele>
        <time>2011-04-24T13:09:36Z</time>
      </trkpt>
      <trkpt lat="31.28184" lon="-4.11414">
        <ele>758.674</ele>
        <time>2011-04-24T13:10:05Z</time>
      </trkpt>
      <trkpt lat="31.27822" lon="-4.12011">
        <ele>757.514</ele>
        <time>2011-04-24T13:11:16Z</time>
      </trkpt>
      <trkpt lat="31.27481" lon="-4.12602">
        <ele>757.123</ele>
        <time>2011-04-24T13:12:08Z</time>
      </trkpt>
      <trkpt lat="31.2729" lon="-4.13092">
        <ele>755.524</ele>
        <time>2011-04-24T13:12:46Z</time>
      </trkpt>
      <trkpt lat="31.26974" lon="-4.13644">
        <ele>756.953</ele>
        <time>2011-04-24T13:13:39Z</time>
      </trkpt>
      <trkpt lat="31.26771" lon="-4.13958">
        <ele>752.835</ele>
        <time>2011-04-24T13:14:14Z</time>
      </trkpt>
      <trkpt lat="31.26563" lon="-4.14403">
        <ele>754.692</ele>
        <time>2011-04-24T13:14:49Z</time>
      </trkpt>
      <trkpt lat="31.2635" lon="-4.14826">
        <ele>750.212</ele>
        <time>2011-04-24T13:15:22Z</time>
      </trkpt>
      <trkpt lat="31.26301" lon="-4.14864">
        <ele>750.753</ele>
        <time>2011-04-24T13:15:29Z</time>
      </trkpt>
      <trkpt lat="31.26197" lon="-4.14908">
        <ele>749.258</ele>
        <time>2011-04-24T13:15:45Z</time>
      </trkpt>
      <trkpt lat="31.26146" lon="-4.14843">
        <ele>752.341</ele>
        <time>2011-04-24T13:16:44Z</time>
      </trkpt>
      <trkpt lat="31.25862" lon="-4.1452">
        <ele>755.371</ele>
        <time>2011-04-24T13:17:06Z</time>
      </trkpt>
      <trkpt lat="31.25355" lon="-4.13963">
        <ele>757.966</ele>
        <time>2011-04-24T13:17:41Z</time>
      </trkpt>
      <trkpt lat="31.25171" lon="-4.13776">
        <ele>756.216</ele>
        <time>2011-04-24T13:17:53Z</time>
      </trkpt>
      <trkpt lat="31.25012" lon="-4.13664">
        <ele>756.326</ele>
        <time>2011-04-24T13:18:02Z</time>
      </trkpt>
      <trkpt lat="31.24846" lon="-4.13582">
        <ele>758.385</ele>
        <time>2011-04-24T13:18:10Z</time>
      </trkpt>
      <trkpt lat="31.24502" lon="-4.13411">
        <ele>756.46</ele>
        <time>2011-04-24T13:18:26Z</time>
      </trkpt>
      <trkpt lat="31.24273" lon="-4.13301">
        <ele>757.19</ele>
        <time>2011-04-24T13:18:37Z</time>
      </trkpt>
      <trkpt lat="31.23834" lon="-4.13128">
        <ele>758.817</ele>
        <time>2011-04-24T13:18:58Z</time>
      </trkpt>
      <trkpt lat="31.23598" lon="-4.13024">
        <ele>753.101</ele>
        <time>2011-04-24T13:19:10Z</time>
      </trkpt>
      <trkpt lat="31.21818" lon="-4.12074">
        <ele>741.537</ele>
        <time>2011-04-24T13:20:38Z</time>
      </trkpt>
      <trkpt lat="31.2164" lon="-4.11942">
        <ele>741.284</ele>
        <time>2011-04-24T13:20:48Z</time>
      </trkpt>
      <trkpt lat="31.20473" lon="-4.10655">
        <ele>740.241</ele>
        <time>2011-04-24T13:22:01Z</time>
      </trkpt>
      <trkpt lat="31.20159" lon="-4.10313">
        <ele>740.663</ele>
        <time>2011-04-24T13:22:20Z</time>
      </trkpt>
      <trkpt lat="31.20085" lon="-4.10247">
        <ele>742.3</ele>
        <time>2011-04-24T13:22:24Z</time>
      </trkpt>
      <trkpt lat="31.18424" lon="-4.09045">
        <ele>741.141</ele>
        <time>2011-04-24T13:23:48Z</time>
      </trkpt>
      <trkpt lat="31.17988" lon="-4.08682">
        <ele>739.271</ele>
        <time>2011-04-24T13:24:11Z</time>
      </trkpt>
      <trkpt lat="31.1754" lon="-4.08383">
        <ele>737.61</ele>
        <time>2011-04-24T13:24:34Z</time>
      </trkpt>
      <trkpt lat="31.17435" lon="-4.08318">
        <ele>735.05</ele>
        <time>2011-04-24T13:24:39Z</time>
      </trkpt>
      <trkpt lat="31.17142" lon="-4.08094">
        <ele>737.582</ele>
        <time>2011-04-24T13:24:54Z</time>
      </trkpt>
      <trkpt lat="31.16718" lon="-4.07567">
        <ele>739.233</ele>
        <time>2011-04-24T13:25:22Z</time>
      </trkpt>
      <trkpt lat="31.16482" lon="-4.07294">
        <ele>737.935</ele>
        <time>2011-04-24T13:25:37Z</time>
      </trkpt>
      <trkpt lat="31.14777" lon="-4.05799">
        <ele>735.057</ele>
        <time>2011-04-24T13:27:09Z</time>
      </trkpt>
      <trkpt lat="31.1336" lon="-4.05024">
        <ele>730.399</ele>
        <time>2011-04-24T13:28:21Z</time>
      </trkpt>
      <trkpt lat="31.13086" lon="-4.04852">
        <ele>729.335</ele>
        <time>2011-04-24T13:28:35Z</time>
      </trkpt>
      <trkpt lat="31.12717" lon="-4.04547">
        <ele>725.296</ele>
        <time>2011-04-24T13:28:55Z</time>
      </trkpt>
      <trkpt lat="31.12377" lon="-4.04239">
        <ele>727.755</ele>
        <time>2011-04-24T13:29:14Z</time>
      </trkpt>
      <trkpt lat="31.12197" lon="-4.04041">
        <ele>727.332</ele>
        <time>2011-04-24T13:29:25Z</time>
      </trkpt>
      <trkpt lat="31.11724" lon="-4.0344">
        <ele>726.157</ele>
        <time>2011-04-24T13:29:55Z</time>
      </trkpt>
      <trkpt lat="31.11324" lon="-4.02832">
        <ele>722.519</ele>
        <time>2011-04-24T13:30:25Z</time>
      </trkpt>
      <trkpt lat="31.10997" lon="-4.02379">
        <ele>715.935</ele>
        <time>2011-04-24T13:30:49Z</time>
      </trkpt>
      <trkpt lat="31.10892" lon="-4.02263">
        <ele>714.511</ele>
        <time>2011-04-24T13:30:56Z</time>
      </trkpt>
      <trkpt lat="31.10757" lon="-4.02184">
        <ele>712.879</ele>
        <time>2011-04-24T13:31:03Z</time>
      </trkpt>
      <trkpt lat="31.10513" lon="-4.02063">
        <ele>705.947</ele>
        <time>2011-04-24T13:31:24Z</time>
      </trkpt>
      <trkpt lat="31.10564" lon="-4.02088">
        <ele>711.312</ele>
        <time>2011-04-24T13:31:35Z</time>
      </trkpt>
      <trkpt lat="31.1067" lon="-4.02137">
        <ele>708.028</ele>
        <time>2011-04-24T13:31:50Z</time>
      </trkpt>
      <trkpt lat="31.10695" lon="-4.02065">
        <ele>710.276</ele>
        <time>2011-04-24T13:31:58Z</time>
      </trkpt>
      <trkpt lat="31.10839" lon="-4.01596">
        <ele>707.842</ele>
        <time>2011-04-24T13:32:43Z</time>
      </trkpt>
      <trkpt lat="31.10854" lon="-4.01536">
        <ele>709.665</ele>
        <time>2011-04-24T13:32:50Z</time>
      </trkpt>
      <trkpt lat="31.10853" lon="-4.0149">
        <ele>707.885</ele>
        <time>2011-04-24T13:32:55Z</time>
      </trkpt>
      <trkpt lat="31.10797" lon="-4.01347">
        <ele>707.5</ele>
        <time>2011-04-24T13:33:09Z</time>
      </trkpt>
      <trkpt lat="31.10699" lon="-4.01111">
        <ele>704.368</ele>
        <time>2011-04-24T13:33:40Z</time>
      </trkpt>
      <trkpt lat="31.10685" lon="-4.01021">
        <ele>704.135</ele>
        <time>2011-04-24T13:33:59Z</time>
      </trkpt>
      <trkpt lat="31.10724" lon="-4.01011">
        <ele>703.011</ele>
        <time>2011-04-24T13:34:23Z</time>
      </trkpt>
    </trkseg>
  </trk>
</gpx>